sensor_id;sensor_type;location;lat;lon;timestamp;pressure;altitude;pressure_sealevel;temperature;humidity
18985;BME280;9626;52.552;13.436;2023-07-09T00:00:47;101455.31;;;21.28;58.39
18985;BME280;9626;52.552;13.436;2023-07-09T00:03:15;101456.81;;;21.17;58.07
18985;BME280;9626;52.552;13.436;2023-07-09T00:05:42;101455.06;;;20.98;59.86
18985;BME280;9626;52.552;13.436;2023-07-09T00:08:38;101460.34;;;21.17;58.89
18985;BME280;9626;52.552;13.436;2023-07-09T00:11:07;101463.06;;;21.17;58.46
18985;BME280;9626;52.552;13.436;2023-07-09T00:13:33;101460.22;;;21.20;58.11
18985;BME280;9626;52.552;13.436;2023-07-09T00:16:01;101455.00;;;21.00;59.60
18985;BME280;9626;52.552;13.436;2023-07-09T00:18:28;101458.84;;;20.94;60.33
18985;BME280;9626;52.552;13.436;2023-07-09T00:20:54;101457.97;;;20.76;60.10
18985;BME280;9626;52.552;13.436;2023-07-09T00:23:20;101451.94;;;20.71;60.48
18985;BME280;9626;52.552;13.436;2023-07-09T00:25:46;101450.84;;;20.75;60.35
18985;BME280;9626;52.552;13.436;2023-07-09T00:28:17;101454.09;;;20.82;59.69
18985;BME280;9626;52.552;13.436;2023-07-09T00:30:47;101448.72;;;20.82;60.26
18985;BME280;9626;52.552;13.436;2023-07-09T00:33:14;101442.66;;;20.96;59.77
18985;BME280;9626;52.552;13.436;2023-07-09T00:35:46;101439.63;;;21.02;58.99
18985;BME280;9626;52.552;13.436;2023-07-09T00:38:14;101438.13;;;20.96;59.01
18985;BME280;9626;52.552;13.436;2023-07-09T00:40:47;101445.94;;;20.83;60.03
18985;BME280;9626;52.552;13.436;2023-07-09T00:43:15;101437.63;;;20.70;60.05
18985;BME280;9626;52.552;13.436;2023-07-09T00:45:42;101435.94;;;20.68;60.53
18985;BME280;9626;52.552;13.436;2023-07-09T00:48:13;101431.63;;;20.83;60.45
18985;BME280;9626;52.552;13.436;2023-07-09T00:50:53;101425.69;;;20.93;60.33
18985;BME280;9626;52.552;13.436;2023-07-09T00:53:25;101426.81;;;21.07;59.85
18985;BME280;9626;52.552;13.436;2023-07-09T00:56:07;101423.94;;;21.10;59.69
18985;BME280;9626;52.552;13.436;2023-07-09T00:58:37;101419.75;;;21.22;59.48
18985;BME280;9626;52.552;13.436;2023-07-09T01:01:08;101425.59;;;21.30;58.81
18985;BME280;9626;52.552;13.436;2023-07-09T01:03:45;101423.53;;;21.35;58.90
18985;BME280;9626;52.552;13.436;2023-07-09T01:06:15;101425.19;;;21.38;58.68
18985;BME280;9626;52.552;13.436;2023-07-09T01:08:43;101426.06;;;21.38;58.69
18985;BME280;9626;52.552;13.436;2023-07-09T01:11:20;101422.66;;;21.35;59.42
18985;BME280;9626;52.552;13.436;2023-07-09T01:13:52;101426.78;;;21.42;59.56
18985;BME280;9626;52.552;13.436;2023-07-09T01:16:19;101425.41;;;21.33;59.94
18985;BME280;9626;52.552;13.436;2023-07-09T01:18:50;101426.16;;;21.19;60.99
18985;BME280;9626;52.552;13.436;2023-07-09T01:21:16;101427.44;;;21.12;61.42
18985;BME280;9626;52.552;13.436;2023-07-09T01:23:43;101424.50;;;20.99;62.64
18985;BME280;9626;52.552;13.436;2023-07-09T01:26:11;101424.28;;;21.04;62.55
18985;BME280;9626;52.552;13.436;2023-07-09T01:28:39;101426.25;;;21.18;61.45
18985;BME280;9626;52.552;13.436;2023-07-09T01:31:08;101426.00;;;21.22;61.14
18985;BME280;9626;52.552;13.436;2023-07-09T01:33:34;101430.09;;;21.30;61.13
18985;BME280;9626;52.552;13.436;2023-07-09T01:36:00;101431.19;;;21.25;61.13
18985;BME280;9626;52.552;13.436;2023-07-09T01:38:27;101426.81;;;21.07;62.00
18985;BME280;9626;52.552;13.436;2023-07-09T01:40:57;101425.84;;;20.73;65.46
18985;BME280;9626;52.552;13.436;2023-07-09T01:43:23;101421.72;;;20.66;66.75
18985;BME280;9626;52.552;13.436;2023-07-09T01:45:51;101423.59;;;20.64;65.94
18985;BME280;9626;52.552;13.436;2023-07-09T01:48:18;101426.41;;;20.43;67.64
18985;BME280;9626;52.552;13.436;2023-07-09T01:50:46;101421.06;;;20.24;68.86
18985;BME280;9626;52.552;13.436;2023-07-09T01:53:16;101419.22;;;20.24;69.63
18985;BME280;9626;52.552;13.436;2023-07-09T01:55:44;101419.59;;;20.36;70.57
18985;BME280;9626;52.552;13.436;2023-07-09T01:58:10;101417.94;;;20.33;71.35
18985;BME280;9626;52.552;13.436;2023-07-09T02:00:37;101416.69;;;20.21;71.68
18985;BME280;9626;52.552;13.436;2023-07-09T02:03:05;101421.09;;;20.05;72.24
18985;BME280;9626;52.552;13.436;2023-07-09T02:05:32;101423.75;;;20.05;72.95
18985;BME280;9626;52.552;13.436;2023-07-09T02:07:59;101422.38;;;20.34;70.98
18985;BME280;9626;52.552;13.436;2023-07-09T02:10:25;101426.72;;;20.54;68.40
18985;BME280;9626;52.552;13.436;2023-07-09T02:12:51;101427.69;;;20.72;67.08
18985;BME280;9626;52.552;13.436;2023-07-09T02:15:17;101432.34;;;20.86;66.56
18985;BME280;9626;52.552;13.436;2023-07-09T02:17:44;101433.84;;;20.92;66.14
18985;BME280;9626;52.552;13.436;2023-07-09T02:20:10;101426.50;;;20.96;65.71
18985;BME280;9626;52.552;13.436;2023-07-09T02:22:37;101428.22;;;20.97;65.61
18985;BME280;9626;52.552;13.436;2023-07-09T02:25:04;101435.19;;;20.83;66.77
18985;BME280;9626;52.552;13.436;2023-07-09T02:27:32;101429.75;;;20.85;66.30
18985;BME280;9626;52.552;13.436;2023-07-09T02:29:58;101431.88;;;20.78;66.52
18985;BME280;9626;52.552;13.436;2023-07-09T02:32:26;101431.97;;;20.76;66.99
18985;BME280;9626;52.552;13.436;2023-07-09T02:34:53;101433.59;;;20.79;66.68
18985;BME280;9626;52.552;13.436;2023-07-09T02:37:21;101440.56;;;20.83;66.51
18985;BME280;9626;52.552;13.436;2023-07-09T02:39:48;101441.38;;;20.85;66.31
18985;BME280;9626;52.552;13.436;2023-07-09T02:42:17;101452.03;;;20.50;66.95
18985;BME280;9626;52.552;13.436;2023-07-09T02:44:44;101445.94;;;20.10;69.73
18985;BME280;9626;52.552;13.436;2023-07-09T02:47:11;101441.50;;;19.90;72.28
18985;BME280;9626;52.552;13.436;2023-07-09T02:49:38;101448.03;;;19.84;73.61
18985;BME280;9626;52.552;13.436;2023-07-09T02:52:04;101448.19;;;19.81;74.06
18985;BME280;9626;52.552;13.436;2023-07-09T02:54:31;101453.00;;;19.73;73.78
18985;BME280;9626;52.552;13.436;2023-07-09T02:56:57;101451.91;;;19.77;73.46
18985;BME280;9626;52.552;13.436;2023-07-09T02:59:23;101448.84;;;19.66;74.34
18985;BME280;9626;52.552;13.436;2023-07-09T03:01:49;101449.06;;;19.61;74.43
18985;BME280;9626;52.552;13.436;2023-07-09T03:04:15;101447.13;;;19.65;74.18
18985;BME280;9626;52.552;13.436;2023-07-09T03:06:41;101451.75;;;19.61;74.87
18985;BME280;9626;52.552;13.436;2023-07-09T03:09:09;101448.47;;;19.54;75.32
18985;BME280;9626;52.552;13.436;2023-07-09T03:11:35;101454.50;;;19.59;75.96
18985;BME280;9626;52.552;13.436;2023-07-09T03:14:02;101455.63;;;19.74;73.60
18985;BME280;9626;52.552;13.436;2023-07-09T03:16:31;101460.66;;;19.82;72.42
18985;BME280;9626;52.552;13.436;2023-07-09T03:18:58;101457.91;;;19.84;71.91
18985;BME280;9626;52.552;13.436;2023-07-09T03:21:25;101463.34;;;19.82;72.28
18985;BME280;9626;52.552;13.436;2023-07-09T03:23:53;101452.03;;;19.74;72.53
18985;BME280;9626;52.552;13.436;2023-07-09T03:26:19;101454.09;;;19.48;74.69
18985;BME280;9626;52.552;13.436;2023-07-09T03:28:45;101456.94;;;19.24;77.36
18985;BME280;9626;52.552;13.436;2023-07-09T03:31:11;101466.41;;;19.13;76.77
18985;BME280;9626;52.552;13.436;2023-07-09T03:33:37;101469.50;;;19.03;77.19
18985;BME280;9626;52.552;13.436;2023-07-09T03:36:04;101468.00;;;18.96;78.36
18985;BME280;9626;52.552;13.436;2023-07-09T03:38:30;101471.16;;;18.84;79.12
18985;BME280;9626;52.552;13.436;2023-07-09T03:40:56;101466.31;;;18.71;80.21
18985;BME280;9626;52.552;13.436;2023-07-09T03:43:23;101460.59;;;18.58;82.10
18985;BME280;9626;52.552;13.436;2023-07-09T03:45:50;101465.13;;;18.56;82.94
18985;BME280;9626;52.552;13.436;2023-07-09T03:48:18;101467.09;;;18.53;84.24
18985;BME280;9626;52.552;13.436;2023-07-09T03:50:46;101468.31;;;18.44;84.31
18985;BME280;9626;52.552;13.436;2023-07-09T03:53:13;101470.69;;;18.74;83.18
18985;BME280;9626;52.552;13.436;2023-07-09T03:55:39;101476.56;;;18.62;82.69
18985;BME280;9626;52.552;13.436;2023-07-09T03:58:06;101464.84;;;18.64;83.03
18985;BME280;9626;52.552;13.436;2023-07-09T04:00:32;101470.38;;;18.59;82.94
18985;BME280;9626;52.552;13.436;2023-07-09T04:02:59;101475.16;;;18.51;84.33
18985;BME280;9626;52.552;13.436;2023-07-09T04:05:26;101471.94;;;18.43;85.33
18985;BME280;9626;52.552;13.436;2023-07-09T04:07:52;101478.19;;;18.44;86.67
18985;BME280;9626;52.552;13.436;2023-07-09T04:10:19;101482.78;;;18.40;86.24
18985;BME280;9626;52.552;13.436;2023-07-09T04:12:46;101480.78;;;18.45;85.59
18985;BME280;9626;52.552;13.436;2023-07-09T04:15:12;101490.97;;;18.37;86.59
18985;BME280;9626;52.552;13.436;2023-07-09T04:17:39;101486.66;;;18.33;87.74
18985;BME280;9626;52.552;13.436;2023-07-09T04:20:07;101484.75;;;18.35;88.61
18985;BME280;9626;52.552;13.436;2023-07-09T04:22:34;101487.66;;;18.52;88.51
18985;BME280;9626;52.552;13.436;2023-07-09T04:25:01;101491.59;;;18.66;87.24
18985;BME280;9626;52.552;13.436;2023-07-09T04:27:28;101492.13;;;18.74;85.74
18985;BME280;9626;52.552;13.436;2023-07-09T04:29:54;101483.31;;;18.72;85.90
18985;BME280;9626;52.552;13.436;2023-07-09T04:32:21;101485.09;;;18.71;85.73
18985;BME280;9626;52.552;13.436;2023-07-09T04:34:47;101483.91;;;19.01;83.03
18985;BME280;9626;52.552;13.436;2023-07-09T04:37:13;101484.63;;;19.04;82.51
18985;BME280;9626;52.552;13.436;2023-07-09T04:39:43;101488.38;;;19.00;83.00
18985;BME280;9626;52.552;13.436;2023-07-09T04:42:12;101482.81;;;18.83;86.78
18985;BME280;9626;52.552;13.436;2023-07-09T04:44:38;101486.72;;;18.98;85.41
18985;BME280;9626;52.552;13.436;2023-07-09T04:47:05;101491.00;;;19.02;84.73
18985;BME280;9626;52.552;13.436;2023-07-09T04:49:31;101487.75;;;19.16;83.82
18985;BME280;9626;52.552;13.436;2023-07-09T04:51:58;101493.59;;;19.05;85.88
18985;BME280;9626;52.552;13.436;2023-07-09T04:54:25;101493.66;;;19.24;85.45
18985;BME280;9626;52.552;13.436;2023-07-09T04:56:52;101495.06;;;19.33;84.13
18985;BME280;9626;52.552;13.436;2023-07-09T04:59:19;101494.19;;;19.53;81.93
18985;BME280;9626;52.552;13.436;2023-07-09T05:01:46;101496.72;;;19.56;81.62
18985;BME280;9626;52.552;13.436;2023-07-09T05:04:12;101484.56;;;19.68;81.31
18985;BME280;9626;52.552;13.436;2023-07-09T05:06:38;101495.03;;;19.74;80.39
18985;BME280;9626;52.552;13.436;2023-07-09T05:09:05;101493.16;;;19.76;79.16
18985;BME280;9626;52.552;13.436;2023-07-09T05:11:34;101492.78;;;19.85;79.32
18985;BME280;9626;52.552;13.436;2023-07-09T05:14:00;101490.94;;;19.86;79.18
18985;BME280;9626;52.552;13.436;2023-07-09T05:16:26;101484.81;;;19.82;79.35
18985;BME280;9626;52.552;13.436;2023-07-09T05:18:52;101483.75;;;19.86;78.99
18985;BME280;9626;52.552;13.436;2023-07-09T05:21:18;101485.34;;;19.90;79.50
18985;BME280;9626;52.552;13.436;2023-07-09T05:23:44;101490.28;;;20.00;79.18
18985;BME280;9626;52.552;13.436;2023-07-09T05:26:10;101487.69;;;19.98;79.53
18985;BME280;9626;52.552;13.436;2023-07-09T05:28:37;101488.88;;;20.12;78.55
18985;BME280;9626;52.552;13.436;2023-07-09T05:31:04;101488.00;;;20.11;79.76
18985;BME280;9626;52.552;13.436;2023-07-09T05:33:30;101482.47;;;20.14;81.05
18985;BME280;9626;52.552;13.436;2023-07-09T05:35:57;101489.38;;;20.20;81.22
18985;BME280;9626;52.552;13.436;2023-07-09T05:38:23;101488.19;;;20.25;79.70
18985;BME280;9626;52.552;13.436;2023-07-09T05:40:59;101488.03;;;20.29;78.76
18985;BME280;9626;52.552;13.436;2023-07-09T05:43:25;101495.03;;;20.33;80.52
18985;BME280;9626;52.552;13.436;2023-07-09T05:45:51;101496.50;;;20.40;81.35
18985;BME280;9626;52.552;13.436;2023-07-09T05:48:17;101497.84;;;20.49;83.06
18985;BME280;9626;52.552;13.436;2023-07-09T05:50:43;101493.84;;;20.57;79.97
18985;BME280;9626;52.552;13.436;2023-07-09T05:53:09;101494.47;;;20.63;79.11
18985;BME280;9626;52.552;13.436;2023-07-09T05:55:35;101492.44;;;20.68;78.43
18985;BME280;9626;52.552;13.436;2023-07-09T05:58:02;101487.66;;;20.74;76.46
18985;BME280;9626;52.552;13.436;2023-07-09T06:00:28;101489.81;;;20.85;73.93
18985;BME280;9626;52.552;13.436;2023-07-09T06:02:54;101491.97;;;20.96;74.96
18985;BME280;9626;52.552;13.436;2023-07-09T06:05:20;101492.38;;;21.06;76.51
18985;BME280;9626;52.552;13.436;2023-07-09T06:07:47;101489.13;;;21.17;70.10
18985;BME280;9626;52.552;13.436;2023-07-09T06:10:14;101496.66;;;21.27;70.54
18985;BME280;9626;52.552;13.436;2023-07-09T06:12:42;101502.31;;;21.39;69.67
18985;BME280;9626;52.552;13.436;2023-07-09T06:15:08;101499.41;;;21.43;72.31
18985;BME280;9626;52.552;13.436;2023-07-09T06:17:34;101493.59;;;21.51;70.56
18985;BME280;9626;52.552;13.436;2023-07-09T06:20:00;101497.84;;;21.57;68.28
18985;BME280;9626;52.552;13.436;2023-07-09T06:22:26;101491.63;;;21.72;67.79
18985;BME280;9626;52.552;13.436;2023-07-09T06:24:54;101495.50;;;21.84;67.77
18985;BME280;9626;52.552;13.436;2023-07-09T06:27:20;101500.63;;;21.89;68.49
18985;BME280;9626;52.552;13.436;2023-07-09T06:29:46;101498.19;;;22.00;70.75
18985;BME280;9626;52.552;13.436;2023-07-09T06:32:12;101504.31;;;22.04;66.32
18985;BME280;9626;52.552;13.436;2023-07-09T06:34:38;101509.19;;;22.13;62.95
18985;BME280;9626;52.552;13.436;2023-07-09T06:37:04;101503.72;;;22.31;62.03
18985;BME280;9626;52.552;13.436;2023-07-09T06:39:30;101510.03;;;22.47;59.66
18985;BME280;9626;52.552;13.436;2023-07-09T06:41:56;101512.03;;;22.59;58.44
18985;BME280;9626;52.552;13.436;2023-07-09T06:44:22;101509.94;;;22.65;60.85
18985;BME280;9626;52.552;13.436;2023-07-09T06:46:51;101512.44;;;22.68;59.92
18985;BME280;9626;52.552;13.436;2023-07-09T06:49:17;101518.69;;;22.84;59.05
18985;BME280;9626;52.552;13.436;2023-07-09T06:51:43;101514.66;;;22.91;58.47
18985;BME280;9626;52.552;13.436;2023-07-09T06:54:12;101531.28;;;23.00;55.94
18985;BME280;9626;52.552;13.436;2023-07-09T06:56:38;101522.63;;;23.09;56.03
18985;BME280;9626;52.552;13.436;2023-07-09T06:59:04;101526.19;;;23.25;55.98
18985;BME280;9626;52.552;13.436;2023-07-09T07:01:30;101523.03;;;23.33;55.77
18985;BME280;9626;52.552;13.436;2023-07-09T07:03:56;101527.00;;;23.42;55.82
18985;BME280;9626;52.552;13.436;2023-07-09T07:06:22;101532.00;;;23.34;55.85
18985;BME280;9626;52.552;13.436;2023-07-09T07:08:48;101523.53;;;23.40;58.11
18985;BME280;9626;52.552;13.436;2023-07-09T07:11:15;101522.38;;;23.44;55.58
18985;BME280;9626;52.552;13.436;2023-07-09T07:13:44;101513.72;;;23.53;55.77
18985;BME280;9626;52.552;13.436;2023-07-09T07:16:12;101518.63;;;23.61;56.30
18985;BME280;9626;52.552;13.436;2023-07-09T07:18:38;101522.78;;;23.67;55.19
18985;BME280;9626;52.552;13.436;2023-07-09T07:21:05;101522.81;;;23.81;54.40
18985;BME280;9626;52.552;13.436;2023-07-09T07:23:31;101519.56;;;23.90;54.53
18985;BME280;9626;52.552;13.436;2023-07-09T07:25:57;101527.09;;;24.00;54.54
18985;BME280;9626;52.552;13.436;2023-07-09T07:28:23;101517.16;;;24.00;55.48
18985;BME280;9626;52.552;13.436;2023-07-09T07:31:04;101512.00;;;24.10;55.18
18985;BME280;9626;52.552;13.436;2023-07-09T07:33:30;101514.94;;;24.07;56.20
18985;BME280;9626;52.552;13.436;2023-07-09T07:35:56;101520.88;;;24.26;58.37
18985;BME280;9626;52.552;13.436;2023-07-09T07:38:22;101517.00;;;24.30;54.52
18985;BME280;9626;52.552;13.436;2023-07-09T07:40:48;101524.38;;;24.28;54.95
18985;BME280;9626;52.552;13.436;2023-07-09T07:43:14;101523.69;;;24.25;55.61
18985;BME280;9626;52.552;13.436;2023-07-09T07:45:42;101516.03;;;24.46;53.12
18985;BME280;9626;52.552;13.436;2023-07-09T07:48:08;101516.94;;;24.59;52.56
18985;BME280;9626;52.552;13.436;2023-07-09T07:50:34;101525.66;;;24.64;52.11
18985;BME280;9626;52.552;13.436;2023-07-09T07:53:00;101518.13;;;24.70;50.56
18985;BME280;9626;52.552;13.436;2023-07-09T07:55:26;101514.00;;;24.77;51.64
18985;BME280;9626;52.552;13.436;2023-07-09T07:57:53;101517.91;;;24.73;52.26
18985;BME280;9626;52.552;13.436;2023-07-09T08:00:19;101519.28;;;24.66;53.19
18985;BME280;9626;52.552;13.436;2023-07-09T08:02:45;101510.38;;;24.63;54.39
18985;BME280;9626;52.552;13.436;2023-07-09T08:05:11;101506.81;;;24.63;53.42
18985;BME280;9626;52.552;13.436;2023-07-09T08:07:37;101511.72;;;24.71;53.12
18985;BME280;9626;52.552;13.436;2023-07-09T08:10:03;101517.50;;;24.79;52.60
18985;BME280;9626;52.552;13.436;2023-07-09T08:12:29;101511.63;;;24.72;53.29
18985;BME280;9626;52.552;13.436;2023-07-09T08:14:55;101519.59;;;24.88;52.57
18985;BME280;9626;52.552;13.436;2023-07-09T08:17:21;101511.09;;;25.07;52.57
18985;BME280;9626;52.552;13.436;2023-07-09T08:19:51;101517.31;;;24.95;52.79
18985;BME280;9626;52.552;13.436;2023-07-09T08:22:17;101517.03;;;25.12;50.00
18985;BME280;9626;52.552;13.436;2023-07-09T08:24:46;101519.84;;;25.38;50.49
18985;BME280;9626;52.552;13.436;2023-07-09T08:27:12;101516.75;;;25.30;51.65
18985;BME280;9626;52.552;13.436;2023-07-09T08:29:38;101518.06;;;25.24;51.16
18985;BME280;9626;52.552;13.436;2023-07-09T08:32:06;101516.38;;;25.49;50.13
18985;BME280;9626;52.552;13.436;2023-07-09T08:34:32;101519.44;;;25.44;50.19
18985;BME280;9626;52.552;13.436;2023-07-09T08:36:59;101515.41;;;25.50;49.68
18985;BME280;9626;52.552;13.436;2023-07-09T08:39:25;101508.34;;;25.60;48.71
18985;BME280;9626;52.552;13.436;2023-07-09T08:42:01;101518.88;;;25.78;48.97
18985;BME280;9626;52.552;13.436;2023-07-09T08:49:59;101519.31;;;26.23;48.61
18985;BME280;9626;52.552;13.436;2023-07-09T08:52:30;101521.72;;;26.39;47.05
18985;BME280;9626;52.552;13.436;2023-07-09T08:55:00;101516.38;;;26.88;45.54
18985;BME280;9626;52.552;13.436;2023-07-09T08:57:34;101517.22;;;26.88;45.13
18985;BME280;9626;52.552;13.436;2023-07-09T09:00:27;101520.31;;;27.19;44.86
18985;BME280;9626;52.552;13.436;2023-07-09T09:03:14;101523.78;;;27.21;44.16
18985;BME280;9626;52.552;13.436;2023-07-09T09:05:43;101522.13;;;27.43;43.41
18985;BME280;9626;52.552;13.436;2023-07-09T09:11:10;101517.00;;;27.85;41.85
18985;BME280;9626;52.552;13.436;2023-07-09T09:13:38;101508.63;;;28.11;41.89
18985;BME280;9626;52.552;13.436;2023-07-09T09:16:12;101514.81;;;28.13;40.17
18985;BME280;9626;52.552;13.436;2023-07-09T09:18:42;101515.56;;;28.04;39.44
18985;BME280;9626;52.552;13.436;2023-07-09T09:21:28;101517.31;;;28.05;40.16
18985;BME280;9626;52.552;13.436;2023-07-09T09:23:57;101513.78;;;28.37;40.37
18985;BME280;9626;52.552;13.436;2023-07-09T09:26:34;101515.50;;;28.49;40.03
18985;BME280;9626;52.552;13.436;2023-07-09T09:29:11;101515.66;;;28.36;40.91
18985;BME280;9626;52.552;13.436;2023-07-09T09:31:37;101522.69;;;28.50;40.48
18985;BME280;9626;52.552;13.436;2023-07-09T09:34:03;101517.50;;;28.47;40.86
18985;BME280;9626;52.552;13.436;2023-07-09T09:36:31;101518.00;;;28.41;41.24
18985;BME280;9626;52.552;13.436;2023-07-09T09:39:02;101504.88;;;28.46;41.01
18985;BME280;9626;52.552;13.436;2023-07-09T09:41:34;101513.13;;;28.67;39.92
18985;BME280;9626;52.552;13.436;2023-07-09T09:44:02;101512.53;;;28.63;39.67
18985;BME280;9626;52.552;13.436;2023-07-09T09:46:30;101516.63;;;28.90;38.76
18985;BME280;9626;52.552;13.436;2023-07-09T09:49:00;101513.47;;;28.62;38.75
18985;BME280;9626;52.552;13.436;2023-07-09T09:51:27;101514.00;;;28.67;38.93
18985;BME280;9626;52.552;13.436;2023-07-09T09:54:00;101505.56;;;28.71;39.84
18985;BME280;9626;52.552;13.436;2023-07-09T09:56:29;101516.97;;;28.64;39.51
18985;BME280;9626;52.552;13.436;2023-07-09T09:58:57;101517.50;;;28.47;38.71
18985;BME280;9626;52.552;13.436;2023-07-09T10:01:28;101507.56;;;28.57;39.10
18985;BME280;9626;52.552;13.436;2023-07-09T10:03:59;101512.50;;;28.52;38.93
18985;BME280;9626;52.552;13.436;2023-07-09T10:06:47;101511.53;;;28.53;38.92
18985;BME280;9626;52.552;13.436;2023-07-09T10:17:54;101510.41;;;28.56;38.87
18985;BME280;9626;52.552;13.436;2023-07-09T10:20:38;101518.81;;;28.64;37.92
18985;BME280;9626;52.552;13.436;2023-07-09T10:23:56;101508.69;;;28.66;38.94
18985;BME280;9626;52.552;13.436;2023-07-09T10:26:13;101516.41;;;28.82;37.85
18985;BME280;9626;52.552;13.436;2023-07-09T10:40:08;101500.00;;;28.49;40.44
18985;BME280;9626;52.552;13.436;2023-07-09T10:42:41;101505.66;;;28.25;40.46
18985;BME280;9626;52.552;13.436;2023-07-09T10:45:12;101501.66;;;28.41;40.07
18985;BME280;9626;52.552;13.436;2023-07-09T10:47:45;101500.00;;;28.49;40.11
18985;BME280;9626;52.552;13.436;2023-07-09T10:50:32;101503.09;;;28.56;39.64
18985;BME280;9626;52.552;13.436;2023-07-09T10:53:12;101496.34;;;28.39;40.08
18985;BME280;9626;52.552;13.436;2023-07-09T10:55:47;101489.22;;;28.59;40.08
18985;BME280;9626;52.552;13.436;2023-07-09T11:00:57;101494.81;;;28.69;39.73
18985;BME280;9626;52.552;13.436;2023-07-09T11:03:37;101492.19;;;28.56;39.13
18985;BME280;9626;52.552;13.436;2023-07-09T11:06:21;101494.91;;;28.56;39.39
18985;BME280;9626;52.552;13.436;2023-07-09T11:08:50;101490.13;;;28.37;39.67
18985;BME280;9626;52.552;13.436;2023-07-09T11:11:32;101493.63;;;28.16;39.77
18985;BME280;9626;52.552;13.436;2023-07-09T11:14:04;101500.94;;;28.27;40.80
18985;BME280;9626;52.552;13.436;2023-07-09T11:16:38;101489.94;;;28.61;39.78
18985;BME280;9626;52.552;13.436;2023-07-09T11:19:10;101494.19;;;28.98;38.76
18985;BME280;9626;52.552;13.436;2023-07-09T11:21:57;101487.00;;;28.64;39.08
18985;BME280;9626;52.552;13.436;2023-07-09T11:24:44;101480.09;;;28.49;40.24
18985;BME280;9626;52.552;13.436;2023-07-09T11:27:26;101479.53;;;28.78;40.32
18985;BME280;9626;52.552;13.436;2023-07-09T11:30:00;101488.81;;;29.08;38.57
18985;BME280;9626;52.552;13.436;2023-07-09T11:32:28;101477.94;;;29.29;38.58
18985;BME280;9626;52.552;13.436;2023-07-09T11:35:09;101474.34;;;29.28;38.13
18985;BME280;9626;52.552;13.436;2023-07-09T11:37:45;101472.25;;;29.21;38.33
18985;BME280;9626;52.552;13.436;2023-07-09T11:40:12;101468.19;;;29.15;38.22
18985;BME280;9626;52.552;13.436;2023-07-09T11:42:56;101461.44;;;29.30;37.58
18985;BME280;9626;52.552;13.436;2023-07-09T11:45:33;101462.31;;;29.31;37.31
18985;BME280;9626;52.552;13.436;2023-07-09T11:48:13;101454.34;;;29.07;38.75
18985;BME280;9626;52.552;13.436;2023-07-09T11:50:47;101455.50;;;29.04;39.64
18985;BME280;9626;52.552;13.436;2023-07-09T11:56:07;101451.44;;;29.20;39.58
18985;BME280;9626;52.552;13.436;2023-07-09T11:58:34;101455.38;;;29.48;38.54
18985;BME280;9626;52.552;13.436;2023-07-09T12:01:00;101455.72;;;29.33;37.34
18985;BME280;9626;52.552;13.436;2023-07-09T12:03:31;101456.09;;;29.50;36.88
18985;BME280;9626;52.552;13.436;2023-07-09T12:06:04;101451.44;;;29.41;37.39
18985;BME280;9626;52.552;13.436;2023-07-09T12:10:59;101440.81;;;29.68;37.68
18985;BME280;9626;52.552;13.436;2023-07-09T12:13:25;101444.38;;;29.38;38.60
18985;BME280;9626;52.552;13.436;2023-07-09T12:15:51;101443.53;;;29.38;37.40
18985;BME280;9626;52.552;13.436;2023-07-09T12:18:18;101440.00;;;29.47;37.31
18985;BME280;9626;52.552;13.436;2023-07-09T12:20:52;101439.06;;;29.37;37.50
18985;BME280;9626;52.552;13.436;2023-07-09T12:25:50;101433.63;;;29.37;37.08
18985;BME280;9626;52.552;13.436;2023-07-09T12:28:17;101425.53;;;29.25;37.42
18985;BME280;9626;52.552;13.436;2023-07-09T12:30:48;101427.47;;;29.23;37.51
18985;BME280;9626;52.552;13.436;2023-07-09T12:33:26;101419.00;;;28.95;37.73
18985;BME280;9626;52.552;13.436;2023-07-09T12:35:56;101428.44;;;29.33;37.24
18985;BME280;9626;52.552;13.436;2023-07-09T12:38:25;101429.03;;;29.16;37.82
18985;BME280;9626;52.552;13.436;2023-07-09T12:40:52;101420.38;;;29.11;37.38
18985;BME280;9626;52.552;13.436;2023-07-09T12:43:28;101424.44;;;29.38;37.19
18985;BME280;9626;52.552;13.436;2023-07-09T12:45:54;101422.78;;;29.46;37.33
18985;BME280;9626;52.552;13.436;2023-07-09T12:48:24;101423.22;;;29.82;36.08
18985;BME280;9626;52.552;13.436;2023-07-09T12:50:51;101410.19;;;29.86;35.82
18985;BME280;9626;52.552;13.436;2023-07-09T12:53:19;101410.22;;;29.65;35.97
18985;BME280;9626;52.552;13.436;2023-07-09T12:55:48;101416.13;;;29.39;36.41
18985;BME280;9626;52.552;13.436;2023-07-09T12:58:28;101404.91;;;29.32;35.79
18985;BME280;9626;52.552;13.436;2023-07-09T13:00:56;101395.91;;;29.42;35.89
18985;BME280;9626;52.552;13.436;2023-07-09T13:03:30;101394.72;;;29.34;35.54
18985;BME280;9626;52.552;13.436;2023-07-09T13:06:05;101388.88;;;29.39;35.86
18985;BME280;9626;52.552;13.436;2023-07-09T13:08:41;101396.34;;;29.78;36.27
18985;BME280;9626;52.552;13.436;2023-07-09T13:11:17;101393.31;;;30.31;34.72
18985;BME280;9626;52.552;13.436;2023-07-09T13:13:58;101398.19;;;30.38;33.75
18985;BME280;9626;52.552;13.436;2023-07-09T13:16:25;101395.59;;;30.36;33.81
18985;BME280;9626;52.552;13.436;2023-07-09T13:18:51;101396.31;;;30.18;33.79
18985;BME280;9626;52.552;13.436;2023-07-09T13:21:18;101398.91;;;30.20;33.84
18985;BME280;9626;52.552;13.436;2023-07-09T13:23:45;101398.34;;;30.26;34.36
18985;BME280;9626;52.552;13.436;2023-07-09T13:26:13;101391.44;;;30.42;34.43
18985;BME280;9626;52.552;13.436;2023-07-09T13:28:40;101395.75;;;30.34;34.38
18985;BME280;9626;52.552;13.436;2023-07-09T13:31:18;101396.31;;;30.18;34.57
18985;BME280;9626;52.552;13.436;2023-07-09T13:33:56;101391.13;;;30.25;34.73
18985;BME280;9626;52.552;13.436;2023-07-09T13:36:24;101396.59;;;30.25;33.58
18985;BME280;9626;52.552;13.436;2023-07-09T13:38:50;101390.56;;;30.22;33.86